sensor_id;sensor_type;location;lat;lon;timestamp;P1;durP1;ratioP1;P2;durP2;ratioP2
3297;SDS011;1661;53.572;10.174;2023-09-18T00:00:29;10.60;;;9.00;;
3297;SDS011;1661;53.572;10.174;2023-09-18T00:02:59;9.43;;;8.67;;
3297;SDS011;1661;53.572;10.174;2023-09-18T00:05:28;9.87;;;8.97;;
3297;SDS011;1661;53.572;10.174;2023-09-18T00:07:54;8.83;;;7.93;;
3297;SDS011;1661;53.572;10.174;2023-09-18T00:10:21;8.00;;;7.40;;
3297;SDS011;1661;53.572;10.174;2023-09-18T00:12:48;9.60;;;8.67;;
3297;SDS011;1661;53.572;10.174;2023-09-18T00:15:15;9.67;;;8.97;;
3297;SDS011;1661;53.572;10.174;2023-09-18T00:17:41;8.77;;;7.87;;
3297;SDS011;1661;53.572;10.174;2023-09-18T00:20:10;8.93;;;8.20;;
3297;SDS011;1661;53.572;10.174;2023-09-18T00:22:38;9.93;;;8.93;;
3297;SDS011;1661;53.572;10.174;2023-09-18T00:25:05;10.83;;;9.80;;
3297;SDS011;1661;53.572;10.174;2023-09-18T00:27:33;8.70;;;7.67;;
3297;SDS011;1661;53.572;10.174;2023-09-18T00:30:01;17.10;;;9.13;;
3297;SDS011;1661;53.572;10.174;2023-09-18T00:32:28;8.73;;;7.83;;
3297;SDS011;1661;53.572;10.174;2023-09-18T00:34:55;13.97;;;8.90;;
3297;SDS011;1661;53.572;10.174;2023-09-18T00:37:23;9.30;;;8.50;;
3297;SDS011;1661;53.572;10.174;2023-09-18T00:39:50;9.23;;;8.43;;
3297;SDS011;1661;53.572;10.174;2023-09-18T00:42:16;10.07;;;9.07;;
3297;SDS011;1661;53.572;10.174;2023-09-18T00:44:47;8.33;;;7.73;;
3297;SDS011;1661;53.572;10.174;2023-09-18T00:47:14;9.00;;;8.23;;
3297;SDS011;1661;53.572;10.174;2023-09-18T00:49:43;14.60;;;9.03;;
3297;SDS011;1661;53.572;10.174;2023-09-18T00:52:12;9.27;;;8.47;;
3297;SDS011;1661;53.572;10.174;2023-09-18T00:54:41;9.40;;;8.70;;
3297;SDS011;1661;53.572;10.174;2023-09-18T00:57:09;9.23;;;8.43;;
3297;SDS011;1661;53.572;10.174;2023-09-18T00:59:36;8.30;;;7.60;;
3297;SDS011;1661;53.572;10.174;2023-09-18T01:02:03;13.93;;;9.10;;
3297;SDS011;1661;53.572;10.174;2023-09-18T01:04:30;8.20;;;7.60;;
3297;SDS011;1661;53.572;10.174;2023-09-18T01:06:58;9.57;;;8.77;;
3297;SDS011;1661;53.572;10.174;2023-09-18T01:09:28;9.07;;;8.17;;
3297;SDS011;1661;53.572;10.174;2023-09-18T01:11:59;8.77;;;8.03;;
3297;SDS011;1661;53.572;10.174;2023-09-18T01:14:33;8.97;;;8.23;;
3297;SDS011;1661;53.572;10.174;2023-09-18T01:17:06;10.27;;;7.87;;
3297;SDS011;1661;53.572;10.174;2023-09-18T01:19:40;9.13;;;8.23;;
3297;SDS011;1661;53.572;10.174;2023-09-18T01:22:09;9.00;;;8.30;;
3297;SDS011;1661;53.572;10.174;2023-09-18T01:24:39;8.20;;;7.40;;
3297;SDS011;1661;53.572;10.174;2023-09-18T01:27:07;10.57;;;8.90;;
3297;SDS011;1661;53.572;10.174;2023-09-18T01:29:35;8.43;;;7.67;;
3297;SDS011;1661;53.572;10.174;2023-09-18T01:32:03;13.90;;;8.40;;
3297;SDS011;1661;53.572;10.174;2023-09-18T01:34:31;8.80;;;8.10;;
3297;SDS011;1661;53.572;10.174;2023-09-18T01:37:01;11.00;;;9.70;;
3297;SDS011;1661;53.572;10.174;2023-09-18T01:39:29;9.73;;;8.93;;
3297;SDS011;1661;53.572;10.174;2023-09-18T01:42:00;8.80;;;8.10;;
3297;SDS011;1661;53.572;10.174;2023-09-18T01:44:27;9.73;;;8.83;;
3297;SDS011;1661;53.572;10.174;2023-09-18T01:46:55;9.83;;;8.97;;
3297;SDS011;1661;53.572;10.174;2023-09-18T01:49:27;9.63;;;8.83;;
3297;SDS011;1661;53.572;10.174;2023-09-18T01:51:54;9.90;;;9.10;;
3297;SDS011;1661;53.572;10.174;2023-09-18T01:54:21;10.73;;;8.80;;
3297;SDS011;1661;53.572;10.174;2023-09-18T01:56:48;9.07;;;8.30;;
3297;SDS011;1661;53.572;10.174;2023-09-18T01:59:16;8.53;;;7.93;;
3297;SDS011;1661;53.572;10.174;2023-09-18T02:01:43;9.97;;;9.10;;
3297;SDS011;1661;53.572;10.174;2023-09-18T02:04:10;10.33;;;9.43;;
3297;SDS011;1661;53.572;10.174;2023-09-18T02:06:37;9.77;;;9.00;;
3297;SDS011;1661;53.572;10.174;2023-09-18T02:09:04;9.50;;;8.80;;
3297;SDS011;1661;53.572;10.174;2023-09-18T02:11:33;9.33;;;8.43;;
3297;SDS011;1661;53.572;10.174;2023-09-18T02:14:01;10.50;;;9.53;;
3297;SDS011;1661;53.572;10.174;2023-09-18T02:16:30;11.93;;;9.27;;
3297;SDS011;1661;53.572;10.174;2023-09-18T02:18:58;13.03;;;10.07;;
3297;SDS011;1661;53.572;10.174;2023-09-18T02:21:25;11.10;;;10.00;;
3297;SDS011;1661;53.572;10.174;2023-09-18T02:23:52;10.23;;;9.37;;
3297;SDS011;1661;53.572;10.174;2023-09-18T02:26:20;9.97;;;9.10;;
3297;SDS011;1661;53.572;10.174;2023-09-18T02:28:48;11.27;;;10.27;;
3297;SDS011;1661;53.572;10.174;2023-09-18T02:31:15;10.40;;;9.57;;
3297;SDS011;1661;53.572;10.174;2023-09-18T02:33:43;11.93;;;10.70;;
3297;SDS011;1661;53.572;10.174;2023-09-18T02:36:10;12.07;;;10.07;;
3297;SDS011;1661;53.572;10.174;2023-09-18T02:38:37;11.07;;;10.17;;
3297;SDS011;1661;53.572;10.174;2023-09-18T02:41:04;12.67;;;11.47;;
3297;SDS011;1661;53.572;10.174;2023-09-18T02:43:30;13.43;;;10.67;;
3297;SDS011;1661;53.572;10.174;2023-09-18T02:45:57;9.70;;;8.90;;
3297;SDS011;1661;53.572;10.174;2023-09-18T02:48:24;13.00;;;10.40;;
3297;SDS011;1661;53.572;10.174;2023-09-18T02:50:52;11.23;;;10.23;;
3297;SDS011;1661;53.572;10.174;2023-09-18T02:53:19;10.63;;;9.73;;
3297;SDS011;1661;53.572;10.174;2023-09-18T02:55:49;10.63;;;9.60;;
3297;SDS011;1661;53.572;10.174;2023-09-18T02:58:17;10.90;;;10.00;;
3297;SDS011;1661;53.572;10.174;2023-09-18T03:00:45;10.60;;;9.60;;
3297;SDS011;1661;53.572;10.174;2023-09-18T03:03:13;9.43;;;8.73;;
3297;SDS011;1661;53.572;10.174;2023-09-18T03:05:41;11.30;;;10.23;;
3297;SDS011;1661;53.572;10.174;2023-09-18T03:08:11;11.90;;;10.70;;
3297;SDS011;1661;53.572;10.174;2023-09-18T03:10:40;10.60;;;9.73;;
3297;SDS011;1661;53.572;10.174;2023-09-18T03:13:08;10.60;;;9.70;;
3297;SDS011;1661;53.572;10.174;2023-09-18T03:15:36;9.83;;;9.03;;
3297;SDS011;1661;53.572;10.174;2023-09-18T03:18:03;9.67;;;8.80;;
3297;SDS011;1661;53.572;10.174;2023-09-18T03:20:32;10.77;;;9.80;;
3297;SDS011;1661;53.572;10.174;2023-09-18T03:23:00;9.80;;;8.80;;
3297;SDS011;1661;53.572;10.174;2023-09-18T03:25:29;9.27;;;8.57;;
3297;SDS011;1661;53.572;10.174;2023-09-18T03:27:56;9.63;;;8.83;;
3297;SDS011;1661;53.572;10.174;2023-09-18T03:30:24;10.27;;;9.40;;
3297;SDS011;1661;53.572;10.174;2023-09-18T03:32:51;8.43;;;7.70;;
3297;SDS011;1661;53.572;10.174;2023-09-18T03:35:19;9.07;;;8.37;;
3297;SDS011;1661;53.572;10.174;2023-09-18T03:37:46;11.27;;;10.13;;
3297;SDS011;1661;53.572;10.174;2023-09-18T03:40:15;10.63;;;9.60;;
3297;SDS011;1661;53.572;10.174;2023-09-18T03:42:43;10.70;;;9.70;;
3297;SDS011;1661;53.572;10.174;2023-09-18T03:45:10;10.70;;;9.90;;
3297;SDS011;1661;53.572;10.174;2023-09-18T03:47:37;9.93;;;9.13;;
3297;SDS011;1661;53.572;10.174;2023-09-18T03:50:06;13.50;;;12.00;;
3297;SDS011;1661;53.572;10.174;2023-09-18T03:52:34;10.10;;;9.07;;
3297;SDS011;1661;53.572;10.174;2023-09-18T03:55:01;9.37;;;8.53;;
3297;SDS011;1661;53.572;10.174;2023-09-18T03:57:28;11.77;;;10.67;;
3297;SDS011;1661;53.572;10.174;2023-09-18T03:59:56;9.77;;;9.03;;
3297;SDS011;1661;53.572;10.174;2023-09-18T04:02:24;10.30;;;9.50;;
3297;SDS011;1661;53.572;10.174;2023-09-18T04:04:51;12.93;;;11.50;;
3297;SDS011;1661;53.572;10.174;2023-09-18T04:07:19;11.57;;;10.47;;
3297;SDS011;1661;53.572;10.174;2023-09-18T04:09:46;13.47;;;12.27;;
3297;SDS011;1661;53.572;10.174;2023-09-18T04:12:13;10.13;;;9.23;;
3297;SDS011;1661;53.572;10.174;2023-09-18T04:14:40;11.03;;;10.07;;
3297;SDS011;1661;53.572;10.174;2023-09-18T04:17:08;11.00;;;10.00;;
3297;SDS011;1661;53.572;10.174;2023-09-18T04:19:35;10.60;;;9.80;;
3297;SDS011;1661;53.572;10.174;2023-09-18T04:22:03;11.30;;;10.30;;
3297;SDS011;1661;53.572;10.174;2023-09-18T04:24:28;12.50;;;11.30;;
3297;SDS011;1661;53.572;10.174;2023-09-18T04:26:55;10.63;;;9.63;;
3297;SDS011;1661;53.572;10.174;2023-09-18T04:29:22;10.17;;;9.23;;
3297;SDS011;1661;53.572;10.174;2023-09-18T04:31:49;9.23;;;8.47;;
3297;SDS011;1661;53.572;10.174;2023-09-18T04:34:17;9.80;;;9.00;;
3297;SDS011;1661;53.572;10.174;2023-09-18T04:36:44;9.50;;;8.30;;
3297;SDS011;1661;53.572;10.174;2023-09-18T04:39:11;11.07;;;9.90;;
3297;SDS011;1661;53.572;10.174;2023-09-18T04:41:39;9.00;;;8.30;;
3297;SDS011;1661;53.572;10.174;2023-09-18T04:44:06;11.27;;;10.27;;
3297;SDS011;1661;53.572;10.174;2023-09-18T04:46:33;12.60;;;10.40;;
3297;SDS011;1661;53.572;10.174;2023-09-18T04:49:01;11.70;;;10.60;;
3297;SDS011;1661;53.572;10.174;2023-09-18T04:51:30;11.40;;;10.50;;
3297;SDS011;1661;53.572;10.174;2023-09-18T04:53:58;17.03;;;10.90;;
3297;SDS011;1661;53.572;10.174;2023-09-18T04:56:25;15.90;;;11.60;;
3297;SDS011;1661;53.572;10.174;2023-09-18T04:58:52;11.50;;;10.50;;
3297;SDS011;1661;53.572;10.174;2023-09-18T05:01:19;11.83;;;10.83;;
3297;SDS011;1661;53.572;10.174;2023-09-18T05:03:45;12.20;;;11.00;;
3297;SDS011;1661;53.572;10.174;2023-09-18T05:06:14;17.93;;;11.70;;
3297;SDS011;1661;53.572;10.174;2023-09-18T05:08:42;13.97;;;12.57;;
3297;SDS011;1661;53.572;10.174;2023-09-18T05:11:09;11.67;;;10.70;;
3297;SDS011;1661;53.572;10.174;2023-09-18T05:13:36;14.10;;;11.40;;
3297;SDS011;1661;53.572;10.174;2023-09-18T05:16:03;11.77;;;10.73;;
3297;SDS011;1661;53.572;10.174;2023-09-18T05:18:30;11.93;;;10.87;;
3297;SDS011;1661;53.572;10.174;2023-09-18T05:20:57;11.73;;;10.80;;
3297;SDS011;1661;53.572;10.174;2023-09-18T05:23:24;12.10;;;11.07;;
3297;SDS011;1661;53.572;10.174;2023-09-18T05:25:52;11.70;;;10.60;;
3297;SDS011;1661;53.572;10.174;2023-09-18T05:28:19;13.30;;;12.00;;
3297;SDS011;1661;53.572;10.174;2023-09-18T05:30:46;17.60;;;12.50;;
3297;SDS011;1661;53.572;10.174;2023-09-18T05:33:13;13.93;;;12.53;;
3297;SDS011;1661;53.572;10.174;2023-09-18T05:35:40;13.37;;;11.97;;
3297;SDS011;1661;53.572;10.174;2023-09-18T05:38:08;13.10;;;11.70;;
3297;SDS011;1661;53.572;10.174;2023-09-18T05:40:36;12.97;;;11.77;;
3297;SDS011;1661;53.572;10.174;2023-09-18T05:43:04;15.03;;;10.33;;
3297;SDS011;1661;53.572;10.174;2023-09-18T05:45:32;12.07;;;11.00;;
3297;SDS011;1661;53.572;10.174;2023-09-18T05:47:59;12.20;;;11.10;;
3297;SDS011;1661;53.572;10.174;2023-09-18T05:50:29;12.60;;;11.53;;
3297;SDS011;1661;53.572;10.174;2023-09-18T05:52:57;13.43;;;10.87;;
3297;SDS011;1661;53.572;10.174;2023-09-18T05:55:25;12.30;;;11.07;;
3297;SDS011;1661;53.572;10.174;2023-09-18T05:57:52;12.07;;;10.70;;
3297;SDS011;1661;53.572;10.174;2023-09-18T06:00:21;12.70;;;11.60;;
3297;SDS011;1661;53.572;10.174;2023-09-18T06:02:48;12.37;;;11.27;;
3297;SDS011;1661;53.572;10.174;2023-09-18T06:05:16;14.63;;;13.03;;
3297;SDS011;1661;53.572;10.174;2023-09-18T06:07:46;13.37;;;11.47;;
3297;SDS011;1661;53.572;10.174;2023-09-18T06:10:13;12.10;;;10.90;;
3297;SDS011;1661;53.572;10.174;2023-09-18T06:12:41;11.77;;;10.70;;
3297;SDS011;1661;53.572;10.174;2023-09-18T06:15:09;12.73;;;11.40;;
3297;SDS011;1661;53.572;10.174;2023-09-18T06:17:38;13.93;;;11.13;;
3297;SDS011;1661;53.572;10.174;2023-09-18T06:20:05;12.57;;;11.50;;
3297;SDS011;1661;53.572;10.174;2023-09-18T06:22:35;11.47;;;10.37;;
3297;SDS011;1661;53.572;10.174;2023-09-18T06:25:02;12.60;;;10.83;;
3297;SDS011;1661;53.572;10.174;2023-09-18T06:27:29;11.53;;;10.33;;
3297;SDS011;1661;53.572;10.174;2023-09-18T06:29:57;16.43;;;9.90;;
3297;SDS011;1661;53.572;10.174;2023-09-18T06:32:24;12.00;;;10.67;;
3297;SDS011;1661;53.572;10.174;2023-09-18T06:34:53;10.50;;;9.60;;
3297;SDS011;1661;53.572;10.174;2023-09-18T06:37:22;10.97;;;9.87;;
3297;SDS011;1661;53.572;10.174;2023-09-18T06:39:49;12.53;;;11.23;;
3297;SDS011;1661;53.572;10.174;2023-09-18T06:42:16;14.73;;;9.40;;
3297;SDS011;1661;53.572;10.174;2023-09-18T06:44:42;11.87;;;9.90;;
3297;SDS011;1661;53.572;10.174;2023-09-18T06:47:09;11.30;;;10.20;;
3297;SDS011;1661;53.572;10.174;2023-09-18T06:49:36;13.03;;;10.17;;
3297;SDS011;1661;53.572;10.174;2023-09-18T06:52:04;10.53;;;9.63;;
3297;SDS011;1661;53.572;10.174;2023-09-18T06:54:31;11.20;;;10.10;;
3297;SDS011;1661;53.572;10.174;2023-09-18T06:56:58;10.90;;;9.90;;
3297;SDS011;1661;53.572;10.174;2023-09-18T06:59:25;10.87;;;9.77;;
3297;SDS011;1661;53.572;10.174;2023-09-18T07:01:51;10.20;;;9.40;;
3297;SDS011;1661;53.572;10.174;2023-09-18T07:04:18;10.13;;;9.27;;
3297;SDS011;1661;53.572;10.174;2023-09-18T07:06:45;10.97;;;10.17;;
3297;SDS011;1661;53.572;10.174;2023-09-18T07:09:13;10.33;;;9.43;;
3297;SDS011;1661;53.572;10.174;2023-09-18T07:11:40;11.83;;;10.10;;
3297;SDS011;1661;53.572;10.174;2023-09-18T07:14:07;14.00;;;10.70;;
3297;SDS011;1661;53.572;10.174;2023-09-18T07:16:34;12.17;;;9.90;;
3297;SDS011;1661;53.572;10.174;2023-09-18T07:19:01;13.83;;;10.57;;
3297;SDS011;1661;53.572;10.174;2023-09-18T07:21:29;14.17;;;11.30;;
3297;SDS011;1661;53.572;10.174;2023-09-18T07:23:56;11.53;;;10.43;;
3297;SDS011;1661;53.572;10.174;2023-09-18T07:26:24;11.60;;;10.30;;
3297;SDS011;1661;53.572;10.174;2023-09-18T07:28:51;10.53;;;9.43;;
3297;SDS011;1661;53.572;10.174;2023-09-18T07:31:18;9.47;;;8.77;;
3297;SDS011;1661;53.572;10.174;2023-09-18T07:33:44;10.63;;;9.63;;
3297;SDS011;1661;53.572;10.174;2023-09-18T07:36:11;9.20;;;8.50;;
3297;SDS011;1661;53.572;10.174;2023-09-18T07:38:40;9.57;;;8.70;;
3297;SDS011;1661;53.572;10.174;2023-09-18T07:41:08;11.27;;;9.83;;
3297;SDS011;1661;53.572;10.174;2023-09-18T07:43:36;8.83;;;8.20;;
3297;SDS011;1661;53.572;10.174;2023-09-18T07:46:04;9.20;;;8.40;;
3297;SDS011;1661;53.572;10.174;2023-09-18T07:48:30;10.63;;;8.73;;
3297;SDS011;1661;53.572;10.174;2023-09-18T07:50:57;9.60;;;8.70;;
3297;SDS011;1661;53.572;10.174;2023-09-18T07:53:24;9.20;;;8.40;;
3297;SDS011;1661;53.572;10.174;2023-09-18T07:55:55;8.97;;;8.10;;
3297;SDS011;1661;53.572;10.174;2023-09-18T07:58:23;8.23;;;7.63;;
3297;SDS011;1661;53.572;10.174;2023-09-18T08:00:54;11.90;;;8.97;;
3297;SDS011;1661;53.572;10.174;2023-09-18T08:03:22;8.97;;;8.27;;
3297;SDS011;1661;53.572;10.174;2023-09-18T08:05:49;11.60;;;8.80;;
3297;SDS011;1661;53.572;10.174;2023-09-18T08:08:18;9.30;;;7.90;;
3297;SDS011;1661;53.572;10.174;2023-09-18T08:10:47;8.07;;;7.53;;
3297;SDS011;1661;53.572;10.174;2023-09-18T08:13:14;7.97;;;7.17;;
3297;SDS011;1661;53.572;10.174;2023-09-18T08:15:40;9.00;;;8.30;;
3297;SDS011;1661;53.572;10.174;2023-09-18T08:18:09;9.17;;;8.33;;
3297;SDS011;1661;53.572;10.174;2023-09-18T08:20:39;8.47;;;7.80;;
3297;SDS011;1661;53.572;10.174;2023-09-18T08:23:07;7.20;;;6.53;;
3297;SDS011;1661;53.572;10.174;2023-09-18T08:25:34;7.70;;;7.10;;
3297;SDS011;1661;53.572;10.174;2023-09-18T08:28:02;6.80;;;6.30;;
3297;SDS011;1661;53.572;10.174;2023-09-18T08:30:29;8.33;;;7.63;;
3297;SDS011;1661;53.572;10.174;2023-09-18T08:32:56;8.00;;;7.30;;
3297;SDS011;1661;53.572;10.174;2023-09-18T08:35:24;9.90;;;7.07;;
3297;SDS011;1661;53.572;10.174;2023-09-18T08:37:54;8.10;;;7.40;;
3297;SDS011;1661;53.572;10.174;2023-09-18T08:40:22;8.83;;;7.83;;
3297;SDS011;1661;53.572;10.174;2023-09-18T08:42:51;6.80;;;6.17;;
3297;SDS011;1661;53.572;10.174;2023-09-18T08:45:22;7.07;;;6.47;;
3297;SDS011;1661;53.572;10.174;2023-09-18T08:47:52;8.13;;;7.33;;
3297;SDS011;1661;53.572;10.174;2023-09-18T08:50:20;7.97;;;7.17;;
3297;SDS011;1661;53.572;10.174;2023-09-18T08:52:49;13.60;;;7.60;;
3297;SDS011;1661;53.572;10.174;2023-09-18T08:55:16;7.40;;;6.63;;
3297;SDS011;1661;53.572;10.174;2023-09-18T08:57:44;7.30;;;6.70;;
3297;SDS011;1661;53.572;10.174;2023-09-18T09:00:13;7.97;;;7.27;;
3297;SDS011;1661;53.572;10.174;2023-09-18T09:02:43;7.20;;;6.77;;
3297;SDS011;1661;53.572;10.174;2023-09-18T09:05:10;8.20;;;7.40;;
3297;SDS011;1661;53.572;10.174;2023-09-18T09:07:36;8.10;;;7.30;;
3297;SDS011;1661;53.572;10.174;2023-09-18T09:10:05;8.13;;;7.60;;
3297;SDS011;1661;53.572;10.174;2023-09-18T09:12:48;8.30;;;7.60;;
3297;SDS011;1661;53.572;10.174;2023-09-18T09:15:16;8.03;;;7.33;;
3297;SDS011;1661;53.572;10.174;2023-09-18T09:17:43;7.80;;;7.10;;
3297;SDS011;1661;53.572;10.174;2023-09-18T09:20:11;10.63;;;6.73;;
3297;SDS011;1661;53.572;10.174;2023-09-18T09:22:39;9.60;;;8.67;;
3297;SDS011;1661;53.572;10.174;2023-09-18T09:25:22;8.03;;;7.33;;
3297;SDS011;1661;53.572;10.174;2023-09-18T09:27:51;7.60;;;7.10;;
3297;SDS011;1661;53.572;10.174;2023-09-18T09:30:18;10.13;;;8.23;;
3297;SDS011;1661;53.572;10.174;2023-09-18T09:32:47;8.50;;;7.70;;
3297;SDS011;1661;53.572;10.174;2023-09-18T09:35:19;8.97;;;8.27;;
3297;SDS011;1661;53.572;10.174;2023-09-18T09:37:48;9.27;;;7.60;;
3297;SDS011;1661;53.572;10.174;2023-09-18T09:40:16;7.97;;;7.37;;
3297;SDS011;1661;53.572;10.174;2023-09-18T09:42:47;8.07;;;7.27;;
3297;SDS011;1661;53.572;10.174;2023-09-18T09:45:16;12.63;;;6.97;;
3297;SDS011;1661;53.572;10.174;2023-09-18T09:47:44;7.60;;;7.00;;
3297;SDS011;1661;53.572;10.174;2023-09-18T09:50:11;7.70;;;7.10;;
3297;SDS011;1661;53.572;10.174;2023-09-18T09:52:41;8.03;;;7.37;;
3297;SDS011;1661;53.572;10.174;2023-09-18T09:55:20;14.80;;;8.00;;
3297;SDS011;1661;53.572;10.174;2023-09-18T09:57:51;7.63;;;6.93;;
3297;SDS011;1661;53.572;10.174;2023-09-18T10:00:19;7.10;;;6.50;;
3297;SDS011;1661;53.572;10.174;2023-09-18T10:02:59;8.07;;;7.13;;
3297;SDS011;1661;53.572;10.174;2023-09-18T10:05:28;6.87;;;6.30;;
3297;SDS011;1661;53.572;10.174;2023-09-18T10:07:58;6.70;;;6.20;;
3297;SDS011;1661;53.572;10.174;2023-09-18T10:10:27;12.83;;;7.43;;
3297;SDS011;1661;53.572;10.174;2023-09-18T10:13:02;7.40;;;6.00;;
3297;SDS011;1661;53.572;10.174;2023-09-18T10:15:34;8.10;;;7.27;;
3297;SDS011;1661;53.572;10.174;2023-09-18T10:18:05;9.50;;;6.87;;
3297;SDS011;1661;53.572;10.174;2023-09-18T10:20:40;8.00;;;7.27;;
3297;SDS011;1661;53.572;10.174;2023-09-18T10:23:11;7.60;;;6.47;;
3297;SDS011;1661;53.572;10.174;2023-09-18T10:25:48;6.53;;;5.90;;
3297;SDS011;1661;53.572;10.174;2023-09-18T10:28:23;7.77;;;7.07;;
3297;SDS011;1661;53.572;10.174;2023-09-18T10:30:52;6.90;;;6.30;;
3297;SDS011;1661;53.572;10.174;2023-09-18T10:33:22;7.53;;;6.83;;
3297;SDS011;1661;53.572;10.174;2023-09-18T10:35:53;7.70;;;7.00;;
3297;SDS011;1661;53.572;10.174;2023-09-18T10:38:22;7.23;;;6.33;;
3297;SDS011;1661;53.572;10.174;2023-09-18T10:40:51;7.63;;;6.70;;
3297;SDS011;1661;53.572;10.174;2023-09-18T10:43:21;7.93;;;6.90;;
3297;SDS011;1661;53.572;10.174;2023-09-18T10:45:48;8.17;;;7.30;;
3297;SDS011;1661;53.572;10.174;2023-09-18T10:48:17;7.93;;;6.40;;
3297;SDS011;1661;53.572;10.174;2023-09-18T10:50:45;8.50;;;6.63;;
3297;SDS011;1661;53.572;10.174;2023-09-18T10:53:12;7.53;;;6.40;;
3297;SDS011;1661;53.572;10.174;2023-09-18T10:55:39;7.00;;;6.50;;
3297;SDS011;1661;53.572;10.174;2023-09-18T10:58:08;7.00;;;6.40;;
3297;SDS011;1661;53.572;10.174;2023-09-18T11:00:36;11.77;;;6.53;;
3297;SDS011;1661;53.572;10.174;2023-09-18T11:03:10;7.87;;;6.67;;
3297;SDS011;1661;53.572;10.174;2023-09-18T11:05:39;7.97;;;6.40;;
3297;SDS011;1661;53.572;10.174;2023-09-18T11:08:25;7.83;;;7.03;;
3297;SDS011;1661;53.572;10.174;2023-09-18T11:10:56;7.40;;;6.70;;
3297;SDS011;1661;53.572;10.174;2023-09-18T11:13:29;8.10;;;7.47;;
3297;SDS011;1661;53.572;10.174;2023-09-18T11:16:02;9.43;;;6.90;;
3297;SDS011;1661;53.572;10.174;2023-09-18T11:18:38;19.77;;;7.17;;
3297;SDS011;1661;53.572;10.174;2023-09-18T11:21:08;8.43;;;5.73;;
3297;SDS011;1661;53.572;10.174;2023-09-18T11:23:36;8.40;;;6.67;;
3297;SDS011;1661;53.572;10.174;2023-09-18T11:26:07;8.30;;;6.73;;
3297;SDS011;1661;53.572;10.174;2023-09-18T11:28:35;6.50;;;5.83;;
3297;SDS011;1661;53.572;10.174;2023-09-18T11:31:05;9.73;;;5.23;;
3297;SDS011;1661;53.572;10.174;2023-09-18T11:33:33;7.77;;;6.30;;
3297;SDS011;1661;53.572;10.174;2023-09-18T11:36:05;10.07;;;6.23;;
3297;SDS011;1661;53.572;10.174;2023-09-18T11:38:50;7.90;;;6.40;;
3297;SDS011;1661;53.572;10.174;2023-09-18T11:41:19;14.60;;;7.53;;
3297;SDS011;1661;53.572;10.174;2023-09-18T11:43:49;8.53;;;6.73;;
3297;SDS011;1661;53.572;10.174;2023-09-18T11:46:21;7.40;;;5.47;;
3297;SDS011;1661;53.572;10.174;2023-09-18T11:48:50;7.17;;;6.47;;
3297;SDS011;1661;53.572;10.174;2023-09-18T11:51:22;7.83;;;6.43;;
3297;SDS011;1661;53.572;10.174;2023-09-18T11:53:50;14.90;;;7.20;;
3297;SDS011;1661;53.572;10.174;2023-09-18T11:56:20;9.40;;;5.90;;
3297;SDS011;1661;53.572;10.174;2023-09-18T11:58:47;8.40;;;5.83;;
3297;SDS011;1661;53.572;10.174;2023-09-18T12:01:15;6.23;;;5.57;;
3297;SDS011;1661;53.572;10.174;2023-09-18T12:03:43;6.20;;;5.33;;
3297;SDS011;1661;53.572;10.174;2023-09-18T12:06:11;6.83;;;5.83;;
3297;SDS011;1661;53.572;10.174;2023-09-18T12:08:39;9.43;;;4.90;;
3297;SDS011;1661;53.572;10.174;2023-09-18T12:11:07;10.80;;;5.43;;
3297;SDS011;1661;53.572;10.174;2023-09-18T12:13:34;15.70;;;6.50;;
3297;SDS011;1661;53.572;10.174;2023-09-18T12:16:01;12.10;;;4.70;;
3297;SDS011;1661;53.572;10.174;2023-09-18T12:18:30;4.90;;;4.50;;
3297;SDS011;1661;53.572;10.174;2023-09-18T12:21:01;8.67;;;5.10;;
3297;SDS011;1661;53.572;10.174;2023-09-18T12:23:36;10.00;;;5.80;;
3297;SDS011;1661;53.572;10.174;2023-09-18T12:26:04;12.90;;;5.13;;
3297;SDS011;1661;53.572;10.174;2023-09-18T12:28:32;9.77;;;4.80;;
3297;SDS011;1661;53.572;10.174;2023-09-18T12:31:01;6.40;;;4.20;;
3297;SDS011;1661;53.572;10.174;2023-09-18T12:33:30;8.57;;;4.90;;
3297;SDS011;1661;53.572;10.174;2023-09-18T12:36:01;10.90;;;4.80;;
3297;SDS011;1661;53.572;10.174;2023-09-18T12:38:30;10.03;;;4.80;;
3297;SDS011;1661;53.572;10.174;2023-09-18T12:40:57;8.20;;;4.93;;
3297;SDS011;1661;53.572;10.174;2023-09-18T12:43:32;10.23;;;3.90;;
3297;SDS011;1661;53.572;10.174;2023-09-18T12:46:00;12.10;;;4.73;;
3297;SDS011;1661;53.572;10.174;2023-09-18T12:48:28;19.70;;;5.23;;
3297;SDS011;1661;53.572;10.174;2023-09-18T12:50:55;9.57;;;4.80;;
3297;SDS011;1661;53.572;10.174;2023-09-18T12:53:30;11.93;;;4.50;;
3297;SDS011;1661;53.572;10.174;2023-09-18T12:56:06;11.13;;;4.70;;
3297;SDS011;1661;53.572;10.174;2023-09-18T12:58:35;9.70;;;4.93;;
3297;SDS011;1661;53.572;10.174;2023-09-18T13:01:05;9.13;;;3.90;;
3297;SDS011;1661;53.572;10.174;2023-09-18T13:03:35;7.17;;;3.50;;
3297;SDS011;1661;53.572;10.174;2023-09-18T13:06:10;11.53;;;3.97;;
3297;SDS011;1661;53.572;10.174;2023-09-18T13:08:38;18.50;;;4.10;;
3297;SDS011;1661;53.572;10.174;2023-09-18T13:11:05;8.70;;;3.60;;
3297;SDS011;1661;53.572;10.174;2023-09-18T13:13:32;7.93;;;3.60;;
3297;SDS011;1661;53.572;10.174;2023-09-18T13:16:00;8.93;;;4.50;;
3297;SDS011;1661;53.572;10.174;2023-09-18T13:18:30;8.80;;;3.63;;
3297;SDS011;1661;53.572;10.174;2023-09-18T13:20:57;5.50;;;2.93;;
3297;SDS011;1661;53.572;10.174;2023-09-18T13:23:29;6.90;;;3.50;;
3297;SDS011;1661;53.572;10.174;2023-09-18T13:26:00;13.53;;;4.00;;
3297;SDS011;1661;53.572;10.174;2023-09-18T13:28:29;5.80;;;3.80;;
3297;SDS011;1661;53.572;10.174;2023-09-18T13:30:58;11.50;;;4.03;;
3297;SDS011;1661;53.572;10.174;2023-09-18T13:33:25;4.50;;;3.20;;
3297;SDS011;1661;53.572;10.174;2023-09-18T13:35:52;5.13;;;3.50;;
3297;SDS011;1661;53.572;10.174;2023-09-18T13:38:21;4.00;;;3.20;;
3297;SDS011;1661;53.572;10.174;2023-09-18T13:40:49;5.97;;;3.60;;
3297;SDS011;1661;53.572;10.174;2023-09-18T13:43:16;11.53;;;3.33;;
3297;SDS011;1661;53.572;10.174;2023-09-18T13:45:43;11.33;;;3.50;;
3297;SDS011;1661;53.572;10.174;2023-09-18T13:48:11;5.20;;;3.97;;
3297;SDS011;1661;53.572;10.174;2023-09-18T13:50:37;6.10;;;3.57;;
3297;SDS011;1661;53.572;10.174;2023-09-18T13:53:04;9.13;;;3.30;;
3297;SDS011;1661;53.572;10.174;2023-09-18T13:55:32;5.07;;;3.60;;
3297;SDS011;1661;53.572;10.174;2023-09-18T13:58:00;4.47;;;4.07;;
3297;SDS011;1661;53.572;10.174;2023-09-18T14:00:28;6.53;;;4.07;;
3297;SDS011;1661;53.572;10.174;2023-09-18T14:02:55;7.90;;;3.57;;
3297;SDS011;1661;53.572;10.174;2023-09-18T14:05:21;9.47;;;4.20;;
3297;SDS011;1661;53.572;10.174;2023-09-18T14:07:48;5.00;;;4.30;;
3297;SDS011;1661;53.572;10.174;2023-09-18T14:10:16;17.83;;;4.03;;
3297;SDS011;1661;53.572;10.174;2023-09-18T14:12:46;8.07;;;3.60;;
3297;SDS011;1661;53.572;10.174;2023-09-18T14:15:14;12.03;;;4.50;;
3297;SDS011;1661;53.572;10.174;2023-09-18T14:17:41;4.50;;;3.63;;
3297;SDS011;1661;53.572;10.174;2023-09-18T14:20:08;6.80;;;3.80;;
3297;SDS011;1661;53.572;10.174;2023-09-18T14:22:35;11.77;;;4.10;;
3297;SDS011;1661;53.572;10.174;2023-09-18T14:25:03;6.20;;;3.70;;
3297;SDS011;1661;53.572;10.174;2023-09-18T14:27:30;5.10;;;3.17;;
3297;SDS011;1661;53.572;10.174;2023-09-18T14:29:58;9.07;;;4.00;;
3297;SDS011;1661;53.572;10.174;2023-09-18T14:32:28;8.33;;;3.57;;
3297;SDS011;1661;53.572;10.174;2023-09-18T14:34:54;4.00;;;3.70;;
3297;SDS011;1661;53.572;10.174;2023-09-18T14:37:21;4.53;;;3.77;;
3297;SDS011;1661;53.572;10.174;2023-09-18T14:39:48;5.90;;;3.33;;
3297;SDS011;1661;53.572;10.174;2023-09-18T14:42:15;8.57;;;3.10;;
3297;SDS011;1661;53.572;10.174;2023-09-18T14:44:42;4.33;;;3.70;;
3297;SDS011;1661;53.572;10.174;2023-09-18T14:47:10;7.73;;;3.70;;
3297;SDS011;1661;53.572;10.174;2023-09-18T14:49:38;4.60;;;3.67;;
3297;SDS011;1661;53.572;10.174;2023-09-18T14:52:05;5.17;;;3.67;;
3297;SDS011;1661;53.572;10.174;2023-09-18T14:54:33;7.73;;;3.03;;
3297;SDS011;1661;53.572;10.174;2023-09-18T14:56:59;6.77;;;2.93;;
3297;SDS011;1661;53.572;10.174;2023-09-18T14:59:26;6.73;;;4.00;;